sensor_id;sensor_type;location;lat;lon;timestamp;P1;durP1;ratioP1;P2;durP2;ratioP2
21758;SDS011;11041;50.854;20.580;2023-06-26T00:01:43;24.38;;;14.88;;
21758;SDS011;11041;50.854;20.580;2023-06-26T00:04:10;22.70;;;14.43;;
21758;SDS011;11041;50.854;20.580;2023-06-26T00:06:40;23.90;;;14.48;;
21758;SDS011;11041;50.854;20.580;2023-06-26T00:09:07;19.15;;;14.38;;
21758;SDS011;11041;50.854;20.580;2023-06-26T00:11:34;20.60;;;14.45;;
21758;SDS011;11041;50.854;20.580;2023-06-26T00:14:01;21.60;;;13.95;;
21758;SDS011;11041;50.854;20.580;2023-06-26T00:16:28;20.27;;;13.68;;
21758;SDS011;11041;50.854;20.580;2023-06-26T00:18:56;19.67;;;14.45;;
21758;SDS011;11041;50.854;20.580;2023-06-26T00:21:24;19.70;;;13.80;;
21758;SDS011;11041;50.854;20.580;2023-06-26T00:23:51;18.00;;;12.73;;
21758;SDS011;11041;50.854;20.580;2023-06-26T00:26:18;17.00;;;12.23;;
21758;SDS011;11041;50.854;20.580;2023-06-26T00:28:44;18.30;;;12.38;;
21758;SDS011;11041;50.854;20.580;2023-06-26T00:31:11;16.50;;;12.48;;
21758;SDS011;11041;50.854;20.580;2023-06-26T00:33:37;19.73;;;12.13;;
21758;SDS011;11041;50.854;20.580;2023-06-26T00:36:04;16.25;;;11.27;;
21758;SDS011;11041;50.854;20.580;2023-06-26T00:38:30;14.60;;;11.88;;
21758;SDS011;11041;50.854;20.580;2023-06-26T00:40:57;18.55;;;12.25;;
21758;SDS011;11041;50.854;20.580;2023-06-26T00:43:24;16.20;;;11.93;;
21758;SDS011;11041;50.854;20.580;2023-06-26T00:45:50;14.02;;;10.90;;
21758;SDS011;11041;50.854;20.580;2023-06-26T00:48:17;18.70;;;12.63;;
21758;SDS011;11041;50.854;20.580;2023-06-26T00:50:44;19.08;;;12.35;;
21758;SDS011;11041;50.854;20.580;2023-06-26T00:53:11;16.92;;;12.98;;
21758;SDS011;11041;50.854;20.580;2023-06-26T00:55:38;19.40;;;12.65;;
21758;SDS011;11041;50.854;20.580;2023-06-26T00:58:05;19.05;;;13.15;;
21758;SDS011;11041;50.854;20.580;2023-06-26T01:00:31;19.05;;;12.75;;
21758;SDS011;11041;50.854;20.580;2023-06-26T01:02:58;16.83;;;12.05;;
21758;SDS011;11041;50.854;20.580;2023-06-26T01:05:25;16.05;;;12.27;;
21758;SDS011;11041;50.854;20.580;2023-06-26T01:07:54;21.70;;;13.20;;
21758;SDS011;11041;50.854;20.580;2023-06-26T01:10:23;17.30;;;11.65;;
21758;SDS011;11041;50.854;20.580;2023-06-26T01:12:53;19.52;;;12.75;;
21758;SDS011;11041;50.854;20.580;2023-06-26T01:15:20;16.88;;;12.75;;
21758;SDS011;11041;50.854;20.580;2023-06-26T01:17:46;17.35;;;11.98;;
21758;SDS011;11041;50.854;20.580;2023-06-26T01:20:16;19.40;;;11.80;;
21758;SDS011;11041;50.854;20.580;2023-06-26T01:22:48;16.00;;;12.57;;
21758;SDS011;11041;50.854;20.580;2023-06-26T01:28:50;19.02;;;12.05;;
21758;SDS011;11041;50.854;20.580;2023-06-26T01:31:19;16.80;;;11.43;;
21758;SDS011;11041;50.854;20.580;2023-06-26T01:33:46;12.85;;;10.63;;
21758;SDS011;11041;50.854;20.580;2023-06-26T01:36:15;16.55;;;12.20;;
21758;SDS011;11041;50.854;20.580;2023-06-26T01:38:42;18.92;;;11.50;;
21758;SDS011;11041;50.854;20.580;2023-06-26T01:41:09;17.58;;;11.07;;
21758;SDS011;11041;50.854;20.580;2023-06-26T01:46:22;16.00;;;10.40;;
21758;SDS011;11041;50.854;20.580;2023-06-26T01:51:56;16.20;;;10.82;;
21758;SDS011;11041;50.854;20.580;2023-06-26T01:54:47;15.30;;;10.80;;
21758;SDS011;11041;50.854;20.580;2023-06-26T01:57:19;15.77;;;11.18;;
21758;SDS011;11041;50.854;20.580;2023-06-26T01:59:50;14.10;;;10.95;;
21758;SDS011;11041;50.854;20.580;2023-06-26T02:02:19;17.15;;;10.57;;
21758;SDS011;11041;50.854;20.580;2023-06-26T02:04:46;18.02;;;11.13;;
21758;SDS011;11041;50.854;20.580;2023-06-26T02:07:13;14.93;;;10.43;;
21758;SDS011;11041;50.854;20.580;2023-06-26T02:09:40;13.45;;;10.95;;
21758;SDS011;11041;50.854;20.580;2023-06-26T02:12:07;14.45;;;11.35;;
21758;SDS011;11041;50.854;20.580;2023-06-26T02:14:34;17.50;;;10.73;;
21758;SDS011;11041;50.854;20.580;2023-06-26T02:17:00;13.10;;;9.98;;
21758;SDS011;11041;50.854;20.580;2023-06-26T02:19:27;14.05;;;10.30;;
21758;SDS011;11041;50.854;20.580;2023-06-26T02:21:53;13.93;;;10.70;;
21758;SDS011;11041;50.854;20.580;2023-06-26T02:24:20;17.15;;;10.50;;
21758;SDS011;11041;50.854;20.580;2023-06-26T02:26:47;12.07;;;10.45;;
21758;SDS011;11041;50.854;20.580;2023-06-26T02:29:15;15.13;;;10.02;;
21758;SDS011;11041;50.854;20.580;2023-06-26T02:31:41;16.45;;;11.10;;
21758;SDS011;11041;50.854;20.580;2023-06-26T02:34:08;14.25;;;9.98;;
21758;SDS011;11041;50.854;20.580;2023-06-26T02:36:35;16.42;;;10.52;;
21758;SDS011;11041;50.854;20.580;2023-06-26T02:39:02;12.40;;;10.00;;
21758;SDS011;11041;50.854;20.580;2023-06-26T02:41:28;14.63;;;10.15;;
21758;SDS011;11041;50.854;20.580;2023-06-26T02:43:54;15.77;;;10.25;;
21758;SDS011;11041;50.854;20.580;2023-06-26T02:46:21;15.60;;;10.40;;
21758;SDS011;11041;50.854;20.580;2023-06-26T02:48:47;15.00;;;10.57;;
21758;SDS011;11041;50.854;20.580;2023-06-26T02:51:14;15.05;;;10.32;;
21758;SDS011;11041;50.854;20.580;2023-06-26T02:53:40;13.35;;;9.70;;
21758;SDS011;11041;50.854;20.580;2023-06-26T02:56:07;16.02;;;10.23;;
21758;SDS011;11041;50.854;20.580;2023-06-26T02:58:33;18.63;;;10.63;;
21758;SDS011;11041;50.854;20.580;2023-06-26T03:00:59;17.45;;;10.57;;
21758;SDS011;11041;50.854;20.580;2023-06-26T03:03:26;16.80;;;9.88;;
21758;SDS011;11041;50.854;20.580;2023-06-26T03:05:54;12.25;;;10.40;;
21758;SDS011;11041;50.854;20.580;2023-06-26T03:08:20;17.30;;;10.90;;
21758;SDS011;11041;50.854;20.580;2023-06-26T03:10:47;16.48;;;11.25;;
21758;SDS011;11041;50.854;20.580;2023-06-26T03:13:13;15.27;;;9.93;;
21758;SDS011;11041;50.854;20.580;2023-06-26T03:15:40;16.17;;;10.55;;
21758;SDS011;11041;50.854;20.580;2023-06-26T03:18:06;16.33;;;10.52;;
21758;SDS011;11041;50.854;20.580;2023-06-26T03:20:35;14.68;;;9.02;;
21758;SDS011;11041;50.854;20.580;2023-06-26T03:23:01;13.77;;;10.98;;
21758;SDS011;11041;50.854;20.580;2023-06-26T03:25:28;14.30;;;10.35;;
21758;SDS011;11041;50.854;20.580;2023-06-26T03:27:54;13.52;;;9.98;;
21758;SDS011;11041;50.854;20.580;2023-06-26T03:30:20;14.20;;;10.15;;
21758;SDS011;11041;50.854;20.580;2023-06-26T03:32:47;12.82;;;9.23;;
21758;SDS011;11041;50.854;20.580;2023-06-26T03:35:14;14.68;;;10.63;;
21758;SDS011;11041;50.854;20.580;2023-06-26T03:37:40;13.48;;;10.13;;
21758;SDS011;11041;50.854;20.580;2023-06-26T03:40:07;12.82;;;10.38;;
21758;SDS011;11041;50.854;20.580;2023-06-26T03:42:35;15.10;;;10.82;;
21758;SDS011;11041;50.854;20.580;2023-06-26T03:45:01;15.45;;;10.40;;
21758;SDS011;11041;50.854;20.580;2023-06-26T03:47:28;15.93;;;9.95;;
21758;SDS011;11041;50.854;20.580;2023-06-26T03:49:54;13.55;;;9.70;;
21758;SDS011;11041;50.854;20.580;2023-06-26T03:52:21;14.00;;;9.60;;
21758;SDS011;11041;50.854;20.580;2023-06-26T03:54:48;12.18;;;9.25;;
21758;SDS011;11041;50.854;20.580;2023-06-26T03:57:14;13.27;;;9.98;;
21758;SDS011;11041;50.854;20.580;2023-06-26T03:59:41;12.73;;;9.77;;
21758;SDS011;11041;50.854;20.580;2023-06-26T04:02:07;18.13;;;11.05;;
21758;SDS011;11041;50.854;20.580;2023-06-26T04:04:34;15.90;;;11.32;;
21758;SDS011;11041;50.854;20.580;2023-06-26T04:07:00;14.07;;;10.77;;
21758;SDS011;11041;50.854;20.580;2023-06-26T04:09:27;15.35;;;10.18;;
21758;SDS011;11041;50.854;20.580;2023-06-26T04:11:54;14.27;;;10.13;;
21758;SDS011;11041;50.854;20.580;2023-06-26T04:14:21;15.77;;;10.32;;
21758;SDS011;11041;50.854;20.580;2023-06-26T04:16:47;15.30;;;10.80;;
21758;SDS011;11041;50.854;20.580;2023-06-26T04:19:14;15.23;;;10.48;;
21758;SDS011;11041;50.854;20.580;2023-06-26T04:21:41;13.13;;;10.27;;
21758;SDS011;11041;50.854;20.580;2023-06-26T04:24:08;11.73;;;9.45;;
21758;SDS011;11041;50.854;20.580;2023-06-26T04:26:35;14.50;;;9.88;;
21758;SDS011;11041;50.854;20.580;2023-06-26T04:29:01;13.52;;;10.10;;
21758;SDS011;11041;50.854;20.580;2023-06-26T04:31:29;11.93;;;9.35;;
21758;SDS011;11041;50.854;20.580;2023-06-26T04:33:55;12.70;;;9.95;;
21758;SDS011;11041;50.854;20.580;2023-06-26T04:36:23;12.90;;;9.60;;
21758;SDS011;11041;50.854;20.580;2023-06-26T04:38:54;11.40;;;9.63;;
21758;SDS011;11041;50.854;20.580;2023-06-26T04:41:22;13.90;;;10.02;;
21758;SDS011;11041;50.854;20.580;2023-06-26T04:43:48;11.68;;;10.32;;
21758;SDS011;11041;50.854;20.580;2023-06-26T04:46:14;13.75;;;10.45;;
21758;SDS011;11041;50.854;20.580;2023-06-26T04:48:41;15.88;;;10.23;;
21758;SDS011;11041;50.854;20.580;2023-06-26T04:51:11;13.20;;;10.18;;
21758;SDS011;11041;50.854;20.580;2023-06-26T04:53:37;17.33;;;12.30;;
21758;SDS011;11041;50.854;20.580;2023-06-26T04:56:04;14.30;;;10.77;;
21758;SDS011;11041;50.854;20.580;2023-06-26T04:58:30;16.67;;;11.55;;
21758;SDS011;11041;50.854;20.580;2023-06-26T05:00:57;16.08;;;11.95;;
21758;SDS011;11041;50.854;20.580;2023-06-26T05:03:24;16.17;;;11.43;;
21758;SDS011;11041;50.854;20.580;2023-06-26T05:05:50;13.25;;;11.38;;
21758;SDS011;11041;50.854;20.580;2023-06-26T05:08:20;14.32;;;10.90;;
21758;SDS011;11041;50.854;20.580;2023-06-26T05:10:49;16.20;;;11.20;;
21758;SDS011;11041;50.854;20.580;2023-06-26T05:13:16;14.45;;;12.05;;
21758;SDS011;11041;50.854;20.580;2023-06-26T05:15:46;14.65;;;11.88;;
21758;SDS011;11041;50.854;20.580;2023-06-26T05:18:12;11.73;;;10.50;;
21758;SDS011;11041;50.854;20.580;2023-06-26T05:20:39;14.23;;;10.52;;
21758;SDS011;11041;50.854;20.580;2023-06-26T05:23:06;15.25;;;11.38;;
21758;SDS011;11041;50.854;20.580;2023-06-26T05:25:34;13.23;;;11.15;;
21758;SDS011;11041;50.854;20.580;2023-06-26T05:28:02;12.57;;;10.13;;
21758;SDS011;11041;50.854;20.580;2023-06-26T05:30:34;15.68;;;9.90;;
21758;SDS011;11041;50.854;20.580;2023-06-26T05:33:01;13.30;;;11.15;;
21758;SDS011;11041;50.854;20.580;2023-06-26T05:35:31;14.05;;;10.60;;
21758;SDS011;11041;50.854;20.580;2023-06-26T05:38:01;16.75;;;10.13;;
21758;SDS011;11041;50.854;20.580;2023-06-26T05:40:28;13.27;;;9.57;;
21758;SDS011;11041;50.854;20.580;2023-06-26T05:42:55;14.00;;;10.05;;
21758;SDS011;11041;50.854;20.580;2023-06-26T05:45:22;11.88;;;9.43;;
21758;SDS011;11041;50.854;20.580;2023-06-26T05:47:48;11.35;;;9.43;;
21758;SDS011;11041;50.854;20.580;2023-06-26T05:50:16;13.27;;;9.18;;
21758;SDS011;11041;50.854;20.580;2023-06-26T05:52:45;11.05;;;9.75;;
21758;SDS011;11041;50.854;20.580;2023-06-26T05:55:12;9.55;;;8.57;;
21758;SDS011;11041;50.854;20.580;2023-06-26T05:57:40;11.32;;;8.95;;
21758;SDS011;11041;50.854;20.580;2023-06-26T06:00:07;13.25;;;9.05;;
21758;SDS011;11041;50.854;20.580;2023-06-26T06:02:38;11.68;;;8.75;;
21758;SDS011;11041;50.854;20.580;2023-06-26T06:05:05;10.70;;;7.97;;
21758;SDS011;11041;50.854;20.580;2023-06-26T06:07:33;12.35;;;9.43;;
21758;SDS011;11041;50.854;20.580;2023-06-26T06:10:01;11.88;;;9.00;;
21758;SDS011;11041;50.854;20.580;2023-06-26T06:12:29;13.27;;;8.98;;
21758;SDS011;11041;50.854;20.580;2023-06-26T06:14:56;13.63;;;8.98;;
21758;SDS011;11041;50.854;20.580;2023-06-26T06:17:22;11.55;;;8.27;;
21758;SDS011;11041;50.854;20.580;2023-06-26T06:19:49;12.18;;;8.38;;
21758;SDS011;11041;50.854;20.580;2023-06-26T06:22:16;10.82;;;8.48;;
21758;SDS011;11041;50.854;20.580;2023-06-26T06:24:43;11.90;;;8.38;;
21758;SDS011;11041;50.854;20.580;2023-06-26T06:27:09;9.65;;;8.27;;
21758;SDS011;11041;50.854;20.580;2023-06-26T06:29:37;14.65;;;8.45;;
21758;SDS011;11041;50.854;20.580;2023-06-26T06:32:03;10.02;;;7.57;;
21758;SDS011;11041;50.854;20.580;2023-06-26T06:34:30;20.02;;;7.95;;
21758;SDS011;11041;50.854;20.580;2023-06-26T06:36:56;12.45;;;7.80;;
21758;SDS011;11041;50.854;20.580;2023-06-26T06:39:23;11.02;;;8.52;;
21758;SDS011;11041;50.854;20.580;2023-06-26T06:41:49;12.45;;;8.10;;
21758;SDS011;11041;50.854;20.580;2023-06-26T06:44:16;9.77;;;7.82;;
21758;SDS011;11041;50.854;20.580;2023-06-26T06:46:43;9.60;;;7.72;;
21758;SDS011;11041;50.854;20.580;2023-06-26T06:49:09;10.60;;;7.85;;
21758;SDS011;11041;50.854;20.580;2023-06-26T06:51:36;9.85;;;8.07;;
21758;SDS011;11041;50.854;20.580;2023-06-26T06:54:02;10.65;;;8.90;;
21758;SDS011;11041;50.854;20.580;2023-06-26T06:56:29;13.18;;;9.18;;
21758;SDS011;11041;50.854;20.580;2023-06-26T06:58:55;9.82;;;7.80;;
21758;SDS011;11041;50.854;20.580;2023-06-26T07:01:22;10.98;;;7.65;;
21758;SDS011;11041;50.854;20.580;2023-06-26T07:03:48;12.77;;;7.63;;
21758;SDS011;11041;50.854;20.580;2023-06-26T07:06:15;7.45;;;6.63;;
21758;SDS011;11041;50.854;20.580;2023-06-26T07:08:41;10.05;;;6.82;;
21758;SDS011;11041;50.854;20.580;2023-06-26T07:11:08;7.40;;;5.82;;
21758;SDS011;11041;50.854;20.580;2023-06-26T07:13:34;11.27;;;6.43;;
21758;SDS011;11041;50.854;20.580;2023-06-26T07:16:01;6.57;;;5.90;;
21758;SDS011;11041;50.854;20.580;2023-06-26T07:18:28;9.68;;;6.72;;
21758;SDS011;11041;50.854;20.580;2023-06-26T07:20:55;7.35;;;6.10;;
21758;SDS011;11041;50.854;20.580;2023-06-26T07:23:21;7.30;;;6.25;;
21758;SDS011;11041;50.854;20.580;2023-06-26T07:25:48;6.25;;;5.65;;
21758;SDS011;11041;50.854;20.580;2023-06-26T07:28:14;7.32;;;6.18;;
21758;SDS011;11041;50.854;20.580;2023-06-26T07:30:41;9.38;;;6.75;;
21758;SDS011;11041;50.854;20.580;2023-06-26T07:33:08;6.25;;;5.53;;
21758;SDS011;11041;50.854;20.580;2023-06-26T07:35:34;9.23;;;5.43;;
21758;SDS011;11041;50.854;20.580;2023-06-26T07:38:01;5.85;;;5.25;;
21758;SDS011;11041;50.854;20.580;2023-06-26T07:40:28;7.32;;;4.97;;
21758;SDS011;11041;50.854;20.580;2023-06-26T07:42:54;6.15;;;5.30;;
21758;SDS011;11041;50.854;20.580;2023-06-26T07:45:23;6.35;;;5.00;;
21758;SDS011;11041;50.854;20.580;2023-06-26T07:47:49;7.65;;;5.70;;
21758;SDS011;11041;50.854;20.580;2023-06-26T07:50:16;5.78;;;5.18;;
21758;SDS011;11041;50.854;20.580;2023-06-26T07:52:47;7.57;;;5.60;;
21758;SDS011;11041;50.854;20.580;2023-06-26T07:55:14;7.60;;;5.00;;
21758;SDS011;11041;50.854;20.580;2023-06-26T07:57:40;6.22;;;4.90;;
21758;SDS011;11041;50.854;20.580;2023-06-26T08:00:07;5.43;;;4.70;;
21758;SDS011;11041;50.854;20.580;2023-06-26T08:02:34;7.10;;;4.97;;
21758;SDS011;11041;50.854;20.580;2023-06-26T08:05:01;6.85;;;5.28;;
21758;SDS011;11041;50.854;20.580;2023-06-26T08:07:28;6.40;;;5.45;;
21758;SDS011;11041;50.854;20.580;2023-06-26T08:09:54;7.43;;;5.00;;
21758;SDS011;11041;50.854;20.580;2023-06-26T08:12:21;5.88;;;5.20;;
21758;SDS011;11041;50.854;20.580;2023-06-26T08:14:47;6.78;;;5.35;;
21758;SDS011;11041;50.854;20.580;2023-06-26T08:17:13;5.25;;;4.68;;
21758;SDS011;11041;50.854;20.580;2023-06-26T08:19:40;7.10;;;4.88;;
21758;SDS011;11041;50.854;20.580;2023-06-26T08:22:07;6.63;;;4.50;;
21758;SDS011;11041;50.854;20.580;2023-06-26T08:24:33;5.43;;;4.65;;
21758;SDS011;11041;50.854;20.580;2023-06-26T08:27:01;5.55;;;4.55;;
21758;SDS011;11041;50.854;20.580;2023-06-26T08:29:27;8.50;;;4.15;;
21758;SDS011;11041;50.854;20.580;2023-06-26T08:31:54;5.90;;;4.38;;
21758;SDS011;11041;50.854;20.580;2023-06-26T08:34:20;4.88;;;4.43;;
21758;SDS011;11041;50.854;20.580;2023-06-26T08:36:47;6.68;;;4.80;;
21758;SDS011;11041;50.854;20.580;2023-06-26T08:39:13;8.40;;;4.78;;
21758;SDS011;11041;50.854;20.580;2023-06-26T08:41:40;6.82;;;5.07;;
21758;SDS011;11041;50.854;20.580;2023-06-26T08:44:07;6.45;;;4.72;;
21758;SDS011;11041;50.854;20.580;2023-06-26T08:46:34;6.10;;;5.15;;
21758;SDS011;11041;50.854;20.580;2023-06-26T08:49:05;5.47;;;4.90;;
21758;SDS011;11041;50.854;20.580;2023-06-26T08:51:49;6.38;;;4.70;;
21758;SDS011;11041;50.854;20.580;2023-06-26T08:54:25;5.53;;;4.78;;
21758;SDS011;11041;50.854;20.580;2023-06-26T08:57:01;5.55;;;4.95;;
21758;SDS011;11041;50.854;20.580;2023-06-26T08:59:30;5.10;;;4.45;;
21758;SDS011;11041;50.854;20.580;2023-06-26T09:01:58;6.32;;;5.72;;
21758;SDS011;11041;50.854;20.580;2023-06-26T09:04:25;6.72;;;4.65;;
21758;SDS011;11041;50.854;20.580;2023-06-26T09:06:52;6.35;;;5.10;;
21758;SDS011;11041;50.854;20.580;2023-06-26T09:09:19;7.18;;;4.95;;
21758;SDS011;11041;50.854;20.580;2023-06-26T09:11:46;6.07;;;5.05;;
21758;SDS011;11041;50.854;20.580;2023-06-26T09:14:13;6.72;;;4.95;;
21758;SDS011;11041;50.854;20.580;2023-06-26T09:16:40;7.47;;;5.50;;
21758;SDS011;11041;50.854;20.580;2023-06-26T09:19:11;6.53;;;4.90;;
21758;SDS011;11041;50.854;20.580;2023-06-26T09:21:41;5.40;;;4.90;;
21758;SDS011;11041;50.854;20.580;2023-06-26T09:24:09;5.35;;;4.68;;
21758;SDS011;11041;50.854;20.580;2023-06-26T09:26:36;6.15;;;5.40;;
21758;SDS011;11041;50.854;20.580;2023-06-26T09:29:06;5.85;;;4.65;;
21758;SDS011;11041;50.854;20.580;2023-06-26T09:31:37;6.93;;;5.18;;
21758;SDS011;11041;50.854;20.580;2023-06-26T09:34:04;5.25;;;4.75;;
21758;SDS011;11041;50.854;20.580;2023-06-26T09:36:32;5.47;;;5.00;;
21758;SDS011;11041;50.854;20.580;2023-06-26T09:39:00;7.03;;;4.25;;
21758;SDS011;11041;50.854;20.580;2023-06-26T09:41:39;5.82;;;4.30;;
21758;SDS011;11041;50.854;20.580;2023-06-26T09:44:10;5.22;;;4.45;;
21758;SDS011;11041;50.854;20.580;2023-06-26T09:46:39;7.63;;;4.88;;
21758;SDS011;11041;50.854;20.580;2023-06-26T09:49:09;4.90;;;4.38;;
21758;SDS011;11041;50.854;20.580;2023-06-26T09:51:37;5.57;;;4.22;;
21758;SDS011;11041;50.854;20.580;2023-06-26T09:54:06;7.63;;;4.72;;
21758;SDS011;11041;50.854;20.580;2023-06-26T09:56:34;7.07;;;4.90;;
21758;SDS011;11041;50.854;20.580;2023-06-26T09:59:02;5.20;;;4.70;;
21758;SDS011;11041;50.854;20.580;2023-06-26T10:01:32;6.43;;;4.88;;
21758;SDS011;11041;50.854;20.580;2023-06-26T10:03:59;6.00;;;4.20;;
21758;SDS011;11041;50.854;20.580;2023-06-26T10:06:27;5.25;;;4.60;;
21758;SDS011;11041;50.854;20.580;2023-06-26T10:09:11;7.53;;;4.82;;
21758;SDS011;11041;50.854;20.580;2023-06-26T10:11:48;5.80;;;4.72;;
21758;SDS011;11041;50.854;20.580;2023-06-26T10:14:31;5.45;;;4.40;;
21758;SDS011;11041;50.854;20.580;2023-06-26T10:19:50;6.30;;;4.68;;
21758;SDS011;11041;50.854;20.580;2023-06-26T10:22:20;5.32;;;4.65;;
21758;SDS011;11041;50.854;20.580;2023-06-26T10:24:55;6.10;;;5.00;;
21758;SDS011;11041;50.854;20.580;2023-06-26T10:27:25;7.00;;;5.28;;
21758;SDS011;11041;50.854;20.580;2023-06-26T10:30:02;5.07;;;4.50;;
21758;SDS011;11041;50.854;20.580;2023-06-26T10:32:35;5.10;;;4.38;;
21758;SDS011;11041;50.854;20.580;2023-06-26T10:35:05;4.93;;;4.45;;
21758;SDS011;11041;50.854;20.580;2023-06-26T10:37:46;5.40;;;4.90;;
21758;SDS011;11041;50.854;20.580;2023-06-26T10:40:20;5.15;;;4.65;;
21758;SDS011;11041;50.854;20.580;2023-06-26T10:43:13;5.30;;;4.68;;
21758;SDS011;11041;50.854;20.580;2023-06-26T10:45:47;7.03;;;5.18;;
21758;SDS011;11041;50.854;20.580;2023-06-26T10:48:20;5.10;;;4.57;;
21758;SDS011;11041;50.854;20.580;2023-06-26T10:50:48;6.93;;;4.30;;
21758;SDS011;11041;50.854;20.580;2023-06-26T10:55:59;4.40;;;4.00;;
21758;SDS011;11041;50.854;20.580;2023-06-26T10:58:39;4.40;;;4.00;;
21758;SDS011;11041;50.854;20.580;2023-06-26T11:03:59;6.93;;;4.70;;
21758;SDS011;11041;50.854;20.580;2023-06-26T11:06:32;4.97;;;4.30;;
21758;SDS011;11041;50.854;20.580;2023-06-26T11:14:24;6.30;;;5.07;;
21758;SDS011;11041;50.854;20.580;2023-06-26T11:16:54;5.15;;;4.65;;
21758;SDS011;11041;50.854;20.580;2023-06-26T11:19:24;6.45;;;4.80;;
21758;SDS011;11041;50.854;20.580;2023-06-26T11:22:02;7.90;;;4.55;;
21758;SDS011;11041;50.854;20.580;2023-06-26T11:24:30;6.03;;;5.40;;
21758;SDS011;11041;50.854;20.580;2023-06-26T11:26:59;6.13;;;5.07;;
21758;SDS011;11041;50.854;20.580;2023-06-26T11:29:28;6.22;;;5.00;;
21758;SDS011;11041;50.854;20.580;2023-06-26T11:31:59;6.88;;;4.90;;
21758;SDS011;11041;50.854;20.580;2023-06-26T11:34:32;5.80;;;4.53;;
21758;SDS011;11041;50.854;20.580;2023-06-26T11:37:00;6.35;;;4.93;;
21758;SDS011;11041;50.854;20.580;2023-06-26T11:39:27;5.43;;;4.93;;
21758;SDS011;11041;50.854;20.580;2023-06-26T11:41:54;6.43;;;5.03;;
21758;SDS011;11041;50.854;20.580;2023-06-26T11:44:21;7.78;;;5.40;;
21758;SDS011;11041;50.854;20.580;2023-06-26T11:46:51;6.00;;;4.45;;
21758;SDS011;11041;50.854;20.580;2023-06-26T11:49:20;7.97;;;5.25;;
21758;SDS011;11041;50.854;20.580;2023-06-26T11:51:48;6.07;;;4.60;;
21758;SDS011;11041;50.854;20.580;2023-06-26T11:54:15;7.65;;;5.25;;
21758;SDS011;11041;50.854;20.580;2023-06-26T11:56:53;13.23;;;5.68;;
21758;SDS011;11041;50.854;20.580;2023-06-26T11:59:37;5.82;;;5.22;;
21758;SDS011;11041;50.854;20.580;2023-06-26T12:02:06;6.43;;;5.05;;
21758;SDS011;11041;50.854;20.580;2023-06-26T12:04:40;6.25;;;4.90;;
21758;SDS011;11041;50.854;20.580;2023-06-26T12:07:09;8.57;;;4.95;;
21758;SDS011;11041;50.854;20.580;2023-06-26T12:09:42;7.55;;;5.20;;
21758;SDS011;11041;50.854;20.580;2023-06-26T12:12:12;6.53;;;5.20;;
21758;SDS011;11041;50.854;20.580;2023-06-26T12:14:42;5.70;;;5.20;;
21758;SDS011;11041;50.854;20.580;2023-06-26T12:17:10;4.93;;;4.53;;
21758;SDS011;11041;50.854;20.580;2023-06-26T12:19:46;7.03;;;4.78;;
21758;SDS011;11041;50.854;20.580;2023-06-26T12:22:17;6.80;;;5.50;;
21758;SDS011;11041;50.854;20.580;2023-06-26T12:24:45;8.73;;;5.40;;
21758;SDS011;11041;50.854;20.580;2023-06-26T12:27:13;6.28;;;4.80;;
21758;SDS011;11041;50.854;20.580;2023-06-26T12:29:46;9.25;;;5.30;;
21758;SDS011;11041;50.854;20.580;2023-06-26T12:32:21;5.75;;;5.10;;
21758;SDS011;11041;50.854;20.580;2023-06-26T12:34:51;7.00;;;5.25;;
21758;SDS011;11041;50.854;20.580;2023-06-26T12:37:18;5.63;;;5.13;;
21758;SDS011;11041;50.854;20.580;2023-06-26T12:42:24;6.85;;;5.00;;
21758;SDS011;11041;50.854;20.580;2023-06-26T12:44:53;8.60;;;5.30;;
21758;SDS011;11041;50.854;20.580;2023-06-26T12:47:25;5.97;;;5.47;;
21758;SDS011;11041;50.854;20.580;2023-06-26T12:49:54;5.90;;;4.93;;
21758;SDS011;11041;50.854;20.580;2023-06-26T12:52:20;5.93;;;5.03;;
21758;SDS011;11041;50.854;20.580;2023-06-26T12:54:51;6.18;;;4.60;;
21758;SDS011;11041;50.854;20.580;2023-06-26T12:57:20;5.70;;;4.80;;
21758;SDS011;11041;50.854;20.580;2023-06-26T12:59:47;6.35;;;4.68;;
21758;SDS011;11041;50.854;20.580;2023-06-26T13:02:14;6.05;;;5.13;;
21758;SDS011;11041;50.854;20.580;2023-06-26T13:04:41;6.43;;;5.53;;
21758;SDS011;11041;50.854;20.580;2023-06-26T13:07:10;5.55;;;4.70;;
21758;SDS011;11041;50.854;20.580;2023-06-26T13:09:37;10.75;;;5.28;;
21758;SDS011;11041;50.854;20.580;2023-06-26T13:12:05;5.35;;;4.85;;
21758;SDS011;11041;50.854;20.580;2023-06-26T13:14:33;6.72;;;5.18;;
21758;SDS011;11041;50.854;20.580;2023-06-26T13:17:02;6.15;;;5.07;;
21758;SDS011;11041;50.854;20.580;2023-06-26T13:19:30;6.50;;;5.07;;
21758;SDS011;11041;50.854;20.580;2023-06-26T13:21:57;4.40;;;4.00;;
21758;SDS011;11041;50.854;20.580;2023-06-26T13:24:24;5.72;;;5.15;;
21758;SDS011;11041;50.854;20.580;2023-06-26T13:26:50;4.82;;;4.40;;
21758;SDS011;11041;50.854;20.580;2023-06-26T13:29:17;4.90;;;4.47;;
21758;SDS011;11041;50.854;20.580;2023-06-26T13:31:43;5.22;;;4.30;;
21758;SDS011;11041;50.854;20.580;2023-06-26T13:34:19;5.45;;;4.57;;
21758;SDS011;11041;50.854;20.580;2023-06-26T13:36:48;6.38;;;5.13;;
21758;SDS011;11041;50.854;20.580;2023-06-26T13:39:15;5.57;;;4.57;;
21758;SDS011;11041;50.854;20.580;2023-06-26T13:41:42;5.63;;;4.35;;
21758;SDS011;11041;50.854;20.580;2023-06-26T13:44:08;5.00;;;4.60;;
21758;SDS011;11041;50.854;20.580;2023-06-26T13:46:35;6.90;;;4.60;;
21758;SDS011;11041;50.854;20.580;2023-06-26T13:49:02;4.78;;;4.38;;
21758;SDS011;11041;50.854;20.580;2023-06-26T13:51:28;5.13;;;4.50;;
21758;SDS011;11041;50.854;20.580;2023-06-26T13:53:55;5.47;;;4.78;;
21758;SDS011;11041;50.854;20.580;2023-06-26T13:56:25;5.88;;;4.53;;
21758;SDS011;11041;50.854;20.580;2023-06-26T13:58:53;5.35;;;4.88;;
21758;SDS011;11041;50.854;20.580;2023-06-26T14:01:19;6.30;;;5.03;;
21758;SDS011;11041;50.854;20.580;2023-06-26T14:03:47;6.03;;;5.43;;
21758;SDS011;11041;50.854;20.580;2023-06-26T14:06:13;9.02;;;5.47;;
21758;SDS011;11041;50.854;20.580;2023-06-26T14:08:39;4.90;;;4.50;;
21758;SDS011;11041;50.854;20.580;2023-06-26T14:11:06;5.13;;;4.63;;
21758;SDS011;11041;50.854;20.580;2023-06-26T14:13:32;5.30;;;4.80;;
21758;SDS011;11041;50.854;20.580;2023-06-26T14:15:59;5.13;;;4.60;;
21758;SDS011;11041;50.854;20.580;2023-06-26T14:18:25;7.72;;;5.07;;
21758;SDS011;11041;50.854;20.580;2023-06-26T14:20:53;5.50;;;5.00;;
21758;SDS011;11041;50.854;20.580;2023-06-26T14:23:20;5.35;;;4.68;;
21758;SDS011;11041;50.854;20.580;2023-06-26T14:25:46;7.13;;;5.45;;
21758;SDS011;11041;50.854;20.580;2023-06-26T14:28:13;6.82;;;5.30;;
21758;SDS011;11041;50.854;20.580;2023-06-26T14:30:39;5.15;;;4.65;;
21758;SDS011;11041;50.854;20.580;2023-06-26T14:33:06;5.35;;;4.85;;
21758;SDS011;11041;50.854;20.580;2023-06-26T14:35:32;5.88;;;5.30;;
21758;SDS011;11041;50.854;20.580;2023-06-26T14:37:59;5.38;;;4.35;;
21758;SDS011;11041;50.854;20.580;2023-06-26T14:40:25;5.32;;;4.93;;
21758;SDS011;11041;50.854;20.580;2023-06-26T14:42:52;7.10;;;4.90;;
21758;SDS011;11041;50.854;20.580;2023-06-26T14:45:18;5.57;;;4.70;;
21758;SDS011;11041;50.854;20.580;2023-06-26T14:47:45;5.20;;;4.18;;
21758;SDS011;11041;50.854;20.580;2023-06-26T14:50:12;5.40;;;4.85;;
21758;SDS011;11041;50.854;20.580;2023-06-26T14:52:39;5.43;;;4.93;;
21758;SDS011;11041;50.854;20.580;2023-06-26T14:55:06;5.65;;;4.78;;